sensor_id;sensor_type;location;lat;lon;timestamp;P1;durP1;ratioP1;P2;durP2;ratioP2
44228;SDS011;29904;51.058;5.378;2023-01-25T00:01:59;33.53;;;22.92;;
44228;SDS011;29904;51.058;5.378;2023-01-25T00:04:25;33.25;;;22.42;;
44228;SDS011;29904;51.058;5.378;2023-01-25T00:06:51;31.90;;;22.13;;
44228;SDS011;29904;51.058;5.378;2023-01-25T00:09:17;33.38;;;22.70;;
44228;SDS011;29904;51.058;5.378;2023-01-25T00:11:46;31.85;;;21.92;;
44228;SDS011;29904;51.058;5.378;2023-01-25T00:14:12;31.83;;;22.10;;
44228;SDS011;29904;51.058;5.378;2023-01-25T00:16:39;30.50;;;21.15;;
44228;SDS011;29904;51.058;5.378;2023-01-25T00:19:06;31.67;;;22.88;;
44228;SDS011;29904;51.058;5.378;2023-01-25T00:21:33;29.05;;;20.48;;
44228;SDS011;29904;51.058;5.378;2023-01-25T00:23:59;29.27;;;20.67;;
44228;SDS011;29904;51.058;5.378;2023-01-25T00:26:25;30.30;;;20.65;;
44228;SDS011;29904;51.058;5.378;2023-01-25T00:28:57;28.90;;;20.23;;
44228;SDS011;29904;51.058;5.378;2023-01-25T00:31:30;31.70;;;21.73;;
44228;SDS011;29904;51.058;5.378;2023-01-25T00:37:02;26.97;;;18.83;;
44228;SDS011;29904;51.058;5.378;2023-01-25T00:39:55;27.45;;;19.27;;
44228;SDS011;29904;51.058;5.378;2023-01-25T00:42:21;27.77;;;19.48;;
44228;SDS011;29904;51.058;5.378;2023-01-25T00:44:49;26.73;;;18.67;;
44228;SDS011;29904;51.058;5.378;2023-01-25T00:47:15;28.48;;;20.35;;
44228;SDS011;29904;51.058;5.378;2023-01-25T00:49:41;29.20;;;20.80;;
44228;SDS011;29904;51.058;5.378;2023-01-25T00:52:09;28.80;;;20.13;;
44228;SDS011;29904;51.058;5.378;2023-01-25T00:54:36;23.92;;;18.10;;
44228;SDS011;29904;51.058;5.378;2023-01-25T00:57:02;26.25;;;18.92;;
44228;SDS011;29904;51.058;5.378;2023-01-25T00:59:28;25.17;;;18.40;;
44228;SDS011;29904;51.058;5.378;2023-01-25T01:01:53;24.53;;;18.00;;
44228;SDS011;29904;51.058;5.378;2023-01-25T01:04:20;25.02;;;18.33;;
44228;SDS011;29904;51.058;5.378;2023-01-25T01:06:49;25.67;;;17.98;;
44228;SDS011;29904;51.058;5.378;2023-01-25T01:09:17;23.37;;;16.83;;
44228;SDS011;29904;51.058;5.378;2023-01-25T01:11:43;22.70;;;16.00;;
44228;SDS011;29904;51.058;5.378;2023-01-25T01:14:11;24.30;;;17.88;;
44228;SDS011;29904;51.058;5.378;2023-01-25T01:16:38;26.50;;;18.38;;
44228;SDS011;29904;51.058;5.378;2023-01-25T01:19:03;25.17;;;17.33;;
44228;SDS011;29904;51.058;5.378;2023-01-25T01:21:30;25.65;;;17.35;;
44228;SDS011;29904;51.058;5.378;2023-01-25T01:23:55;24.48;;;17.40;;
44228;SDS011;29904;51.058;5.378;2023-01-25T01:26:21;26.13;;;18.60;;
44228;SDS011;29904;51.058;5.378;2023-01-25T01:28:49;24.88;;;17.77;;
44228;SDS011;29904;51.058;5.378;2023-01-25T01:31:16;26.92;;;18.98;;
44228;SDS011;29904;51.058;5.378;2023-01-25T01:33:44;28.50;;;19.77;;
44228;SDS011;29904;51.058;5.378;2023-01-25T01:36:13;29.30;;;20.63;;
44228;SDS011;29904;51.058;5.378;2023-01-25T01:38:41;26.38;;;19.55;;
44228;SDS011;29904;51.058;5.378;2023-01-25T01:41:07;28.63;;;19.80;;
44228;SDS011;29904;51.058;5.378;2023-01-25T01:43:34;26.48;;;18.10;;
44228;SDS011;29904;51.058;5.378;2023-01-25T01:46:04;22.13;;;16.23;;
44228;SDS011;29904;51.058;5.378;2023-01-25T01:51:13;24.70;;;17.77;;
44228;SDS011;29904;51.058;5.378;2023-01-25T01:53:45;23.40;;;17.05;;
44228;SDS011;29904;51.058;5.378;2023-01-25T01:56:16;22.33;;;16.20;;
44228;SDS011;29904;51.058;5.378;2023-01-25T01:58:46;22.00;;;15.57;;
44228;SDS011;29904;51.058;5.378;2023-01-25T02:01:17;22.98;;;15.93;;
44228;SDS011;29904;51.058;5.378;2023-01-25T02:03:44;25.17;;;17.67;;
44228;SDS011;29904;51.058;5.378;2023-01-25T02:06:14;23.92;;;17.17;;
44228;SDS011;29904;51.058;5.378;2023-01-25T02:08:57;26.40;;;18.80;;
44228;SDS011;29904;51.058;5.378;2023-01-25T02:11:25;25.85;;;18.67;;
44228;SDS011;29904;51.058;5.378;2023-01-25T02:13:53;27.08;;;19.55;;
44228;SDS011;29904;51.058;5.378;2023-01-25T02:16:23;27.35;;;19.73;;
44228;SDS011;29904;51.058;5.378;2023-01-25T02:18:50;25.50;;;17.73;;
44228;SDS011;29904;51.058;5.378;2023-01-25T02:21:19;26.65;;;18.67;;
44228;SDS011;29904;51.058;5.378;2023-01-25T02:24:00;27.92;;;20.10;;
44228;SDS011;29904;51.058;5.378;2023-01-25T02:26:40;27.45;;;19.15;;
44228;SDS011;29904;51.058;5.378;2023-01-25T02:29:07;27.00;;;18.88;;
44228;SDS011;29904;51.058;5.378;2023-01-25T02:31:35;28.60;;;19.00;;
44228;SDS011;29904;51.058;5.378;2023-01-25T02:34:01;31.00;;;21.30;;
44228;SDS011;29904;51.058;5.378;2023-01-25T02:36:27;31.27;;;22.08;;
44228;SDS011;29904;51.058;5.378;2023-01-25T02:39:02;28.83;;;20.20;;
44228;SDS011;29904;51.058;5.378;2023-01-25T02:41:34;27.55;;;19.52;;
44228;SDS011;29904;51.058;5.378;2023-01-25T02:44:21;32.67;;;22.33;;
44228;SDS011;29904;51.058;5.378;2023-01-25T02:46:50;31.02;;;21.30;;
44228;SDS011;29904;51.058;5.378;2023-01-25T02:49:17;32.53;;;22.55;;
44228;SDS011;29904;51.058;5.378;2023-01-25T02:51:44;31.98;;;21.67;;
44228;SDS011;29904;51.058;5.378;2023-01-25T02:54:13;31.60;;;21.33;;
44228;SDS011;29904;51.058;5.378;2023-01-25T02:56:40;33.58;;;22.95;;
44228;SDS011;29904;51.058;5.378;2023-01-25T02:59:06;37.72;;;25.13;;
44228;SDS011;29904;51.058;5.378;2023-01-25T03:01:33;36.08;;;24.00;;
44228;SDS011;29904;51.058;5.378;2023-01-25T03:04:03;32.97;;;22.83;;
44228;SDS011;29904;51.058;5.378;2023-01-25T03:06:30;31.98;;;22.58;;
44228;SDS011;29904;51.058;5.378;2023-01-25T03:08:56;33.65;;;23.00;;
44228;SDS011;29904;51.058;5.378;2023-01-25T03:11:22;33.60;;;22.60;;
44228;SDS011;29904;51.058;5.378;2023-01-25T03:13:48;33.20;;;23.23;;
44228;SDS011;29904;51.058;5.378;2023-01-25T03:16:14;33.67;;;22.55;;
44228;SDS011;29904;51.058;5.378;2023-01-25T03:18:42;33.15;;;22.60;;
44228;SDS011;29904;51.058;5.378;2023-01-25T03:21:12;35.45;;;23.10;;
44228;SDS011;29904;51.058;5.378;2023-01-25T03:23:43;34.88;;;23.33;;
44228;SDS011;29904;51.058;5.378;2023-01-25T03:26:11;33.13;;;22.50;;
44228;SDS011;29904;51.058;5.378;2023-01-25T03:28:39;33.30;;;22.93;;
44228;SDS011;29904;51.058;5.378;2023-01-25T03:31:08;33.63;;;22.83;;
44228;SDS011;29904;51.058;5.378;2023-01-25T03:33:35;33.63;;;22.67;;
44228;SDS011;29904;51.058;5.378;2023-01-25T03:36:01;34.65;;;23.17;;
44228;SDS011;29904;51.058;5.378;2023-01-25T03:38:28;37.60;;;24.38;;
44228;SDS011;29904;51.058;5.378;2023-01-25T03:40:54;37.13;;;24.33;;
44228;SDS011;29904;51.058;5.378;2023-01-25T03:43:20;34.27;;;22.83;;
44228;SDS011;29904;51.058;5.378;2023-01-25T03:45:50;36.53;;;24.48;;
44228;SDS011;29904;51.058;5.378;2023-01-25T03:48:20;36.85;;;23.92;;
44228;SDS011;29904;51.058;5.378;2023-01-25T03:50:48;35.40;;;23.75;;
44228;SDS011;29904;51.058;5.378;2023-01-25T03:53:21;33.85;;;22.45;;
44228;SDS011;29904;51.058;5.378;2023-01-25T03:56:14;34.60;;;23.50;;
44228;SDS011;29904;51.058;5.378;2023-01-25T03:58:43;35.08;;;23.27;;
44228;SDS011;29904;51.058;5.378;2023-01-25T04:01:09;36.00;;;24.38;;
44228;SDS011;29904;51.058;5.378;2023-01-25T04:03:37;35.05;;;24.17;;
44228;SDS011;29904;51.058;5.378;2023-01-25T04:06:03;37.03;;;24.30;;
44228;SDS011;29904;51.058;5.378;2023-01-25T04:08:30;35.35;;;22.58;;
44228;SDS011;29904;51.058;5.378;2023-01-25T04:11:02;33.15;;;22.40;;
44228;SDS011;29904;51.058;5.378;2023-01-25T04:13:29;32.72;;;22.15;;
44228;SDS011;29904;51.058;5.378;2023-01-25T04:15:55;35.50;;;23.38;;
44228;SDS011;29904;51.058;5.378;2023-01-25T04:18:21;34.13;;;22.40;;
44228;SDS011;29904;51.058;5.378;2023-01-25T04:20:52;34.35;;;23.15;;
44228;SDS011;29904;51.058;5.378;2023-01-25T04:23:18;34.72;;;22.38;;
44228;SDS011;29904;51.058;5.378;2023-01-25T04:28:23;30.73;;;20.60;;
44228;SDS011;29904;51.058;5.378;2023-01-25T04:30:49;30.40;;;20.75;;
44228;SDS011;29904;51.058;5.378;2023-01-25T04:33:15;28.35;;;19.33;;
44228;SDS011;29904;51.058;5.378;2023-01-25T04:35:42;30.70;;;20.65;;
44228;SDS011;29904;51.058;5.378;2023-01-25T04:38:08;30.13;;;20.23;;
44228;SDS011;29904;51.058;5.378;2023-01-25T04:40:34;31.50;;;20.80;;
44228;SDS011;29904;51.058;5.378;2023-01-25T04:43:02;25.90;;;18.30;;
44228;SDS011;29904;51.058;5.378;2023-01-25T04:45:28;25.98;;;17.92;;
44228;SDS011;29904;51.058;5.378;2023-01-25T04:47:55;22.53;;;16.30;;
44228;SDS011;29904;51.058;5.378;2023-01-25T04:50:22;24.00;;;16.50;;
44228;SDS011;29904;51.058;5.378;2023-01-25T04:52:48;26.95;;;18.23;;
44228;SDS011;29904;51.058;5.378;2023-01-25T04:55:13;27.10;;;18.13;;
44228;SDS011;29904;51.058;5.378;2023-01-25T04:57:41;24.80;;;17.50;;
44228;SDS011;29904;51.058;5.378;2023-01-25T05:00:07;28.65;;;18.73;;
44228;SDS011;29904;51.058;5.378;2023-01-25T05:02:34;28.27;;;19.15;;
44228;SDS011;29904;51.058;5.378;2023-01-25T05:05:03;28.70;;;19.25;;
44228;SDS011;29904;51.058;5.378;2023-01-25T05:07:30;23.77;;;16.25;;
44228;SDS011;29904;51.058;5.378;2023-01-25T05:09:55;25.02;;;17.58;;
44228;SDS011;29904;51.058;5.378;2023-01-25T05:12:21;27.47;;;18.43;;
44228;SDS011;29904;51.058;5.378;2023-01-25T05:14:47;24.73;;;17.77;;
44228;SDS011;29904;51.058;5.378;2023-01-25T05:17:12;25.83;;;18.08;;
44228;SDS011;29904;51.058;5.378;2023-01-25T05:19:38;24.45;;;16.95;;
44228;SDS011;29904;51.058;5.378;2023-01-25T05:22:15;29.47;;;20.20;;
44228;SDS011;29904;51.058;5.378;2023-01-25T05:24:41;23.80;;;17.10;;
44228;SDS011;29904;51.058;5.378;2023-01-25T05:27:09;24.63;;;17.30;;
44228;SDS011;29904;51.058;5.378;2023-01-25T05:29:36;25.80;;;18.20;;
44228;SDS011;29904;51.058;5.378;2023-01-25T05:32:04;26.25;;;18.58;;
44228;SDS011;29904;51.058;5.378;2023-01-25T05:34:38;26.77;;;18.67;;
44228;SDS011;29904;51.058;5.378;2023-01-25T05:37:05;26.65;;;18.25;;
44228;SDS011;29904;51.058;5.378;2023-01-25T05:39:32;29.05;;;19.58;;
44228;SDS011;29904;51.058;5.378;2023-01-25T05:41:58;26.13;;;17.80;;
44228;SDS011;29904;51.058;5.378;2023-01-25T05:44:25;25.20;;;17.52;;
44228;SDS011;29904;51.058;5.378;2023-01-25T05:46:50;26.38;;;18.90;;
44228;SDS011;29904;51.058;5.378;2023-01-25T05:49:17;27.27;;;18.63;;
44228;SDS011;29904;51.058;5.378;2023-01-25T05:51:43;27.30;;;18.33;;
44228;SDS011;29904;51.058;5.378;2023-01-25T05:54:13;28.00;;;19.27;;
44228;SDS011;29904;51.058;5.378;2023-01-25T05:56:40;27.23;;;18.65;;
44228;SDS011;29904;51.058;5.378;2023-01-25T05:59:08;25.90;;;17.67;;
44228;SDS011;29904;51.058;5.378;2023-01-25T06:01:35;28.55;;;18.50;;
44228;SDS011;29904;51.058;5.378;2023-01-25T06:04:00;27.15;;;18.65;;
44228;SDS011;29904;51.058;5.378;2023-01-25T06:06:26;24.80;;;17.80;;
44228;SDS011;29904;51.058;5.378;2023-01-25T06:08:52;25.30;;;17.63;;
44228;SDS011;29904;51.058;5.378;2023-01-25T06:11:21;25.80;;;17.90;;
44228;SDS011;29904;51.058;5.378;2023-01-25T06:13:48;27.38;;;18.65;;
44228;SDS011;29904;51.058;5.378;2023-01-25T06:16:15;28.35;;;18.58;;
44228;SDS011;29904;51.058;5.378;2023-01-25T06:18:42;24.70;;;17.00;;
44228;SDS011;29904;51.058;5.378;2023-01-25T06:21:08;23.88;;;16.90;;
44228;SDS011;29904;51.058;5.378;2023-01-25T06:23:34;27.23;;;18.90;;
44228;SDS011;29904;51.058;5.378;2023-01-25T06:26:02;26.90;;;18.27;;
44228;SDS011;29904;51.058;5.378;2023-01-25T06:28:33;26.95;;;18.65;;
44228;SDS011;29904;51.058;5.378;2023-01-25T06:31:07;26.00;;;17.75;;
44228;SDS011;29904;51.058;5.378;2023-01-25T06:33:34;25.50;;;16.77;;
44228;SDS011;29904;51.058;5.378;2023-01-25T06:36:04;23.08;;;15.82;;
44228;SDS011;29904;51.058;5.378;2023-01-25T06:38:31;26.40;;;17.80;;
44228;SDS011;29904;51.058;5.378;2023-01-25T06:40:58;24.25;;;17.38;;
44228;SDS011;29904;51.058;5.378;2023-01-25T06:43:25;25.75;;;17.25;;
44228;SDS011;29904;51.058;5.378;2023-01-25T06:45:51;28.00;;;19.30;;
44228;SDS011;29904;51.058;5.378;2023-01-25T06:48:17;24.67;;;17.40;;
44228;SDS011;29904;51.058;5.378;2023-01-25T06:50:43;27.93;;;19.27;;
44228;SDS011;29904;51.058;5.378;2023-01-25T06:53:08;27.00;;;19.30;;
44228;SDS011;29904;51.058;5.378;2023-01-25T06:55:34;27.83;;;19.98;;
44228;SDS011;29904;51.058;5.378;2023-01-25T06:58:00;27.95;;;19.00;;
44228;SDS011;29904;51.058;5.378;2023-01-25T07:00:26;26.97;;;19.13;;
44228;SDS011;29904;51.058;5.378;2023-01-25T07:02:51;30.43;;;20.73;;
44228;SDS011;29904;51.058;5.378;2023-01-25T07:05:17;30.05;;;21.10;;
44228;SDS011;29904;51.058;5.378;2023-01-25T07:07:43;30.52;;;20.70;;
44228;SDS011;29904;51.058;5.378;2023-01-25T07:10:10;30.80;;;20.83;;
44228;SDS011;29904;51.058;5.378;2023-01-25T07:12:36;33.28;;;22.60;;
44228;SDS011;29904;51.058;5.378;2023-01-25T07:15:02;33.38;;;21.95;;
44228;SDS011;29904;51.058;5.378;2023-01-25T07:17:27;31.87;;;21.40;;
44228;SDS011;29904;51.058;5.378;2023-01-25T07:19:53;32.00;;;20.52;;
44228;SDS011;29904;51.058;5.378;2023-01-25T07:22:19;32.03;;;21.95;;
44228;SDS011;29904;51.058;5.378;2023-01-25T07:24:45;31.35;;;20.88;;
44228;SDS011;29904;51.058;5.378;2023-01-25T07:27:14;29.50;;;20.55;;
44228;SDS011;29904;51.058;5.378;2023-01-25T07:29:40;31.25;;;20.63;;
44228;SDS011;29904;51.058;5.378;2023-01-25T07:32:10;30.42;;;19.95;;
44228;SDS011;29904;51.058;5.378;2023-01-25T07:34:37;36.30;;;23.48;;
44228;SDS011;29904;51.058;5.378;2023-01-25T07:37:03;31.03;;;21.63;;
44228;SDS011;29904;51.058;5.378;2023-01-25T07:39:33;33.25;;;21.83;;
44228;SDS011;29904;51.058;5.378;2023-01-25T07:41:59;34.80;;;22.57;;
44228;SDS011;29904;51.058;5.378;2023-01-25T07:44:25;34.53;;;22.38;;
44228;SDS011;29904;51.058;5.378;2023-01-25T07:46:52;35.85;;;22.50;;
44228;SDS011;29904;51.058;5.378;2023-01-25T07:49:19;29.85;;;20.73;;
44228;SDS011;29904;51.058;5.378;2023-01-25T07:51:44;28.60;;;18.83;;
44228;SDS011;29904;51.058;5.378;2023-01-25T07:54:10;28.50;;;19.10;;
44228;SDS011;29904;51.058;5.378;2023-01-25T07:56:36;27.30;;;18.10;;
44228;SDS011;29904;51.058;5.378;2023-01-25T07:59:04;27.47;;;18.43;;
44228;SDS011;29904;51.058;5.378;2023-01-25T08:01:32;30.10;;;19.33;;
44228;SDS011;29904;51.058;5.378;2023-01-25T08:03:58;28.23;;;19.77;;
44228;SDS011;29904;51.058;5.378;2023-01-25T08:06:25;25.50;;;17.92;;
44228;SDS011;29904;51.058;5.378;2023-01-25T08:08:55;26.75;;;18.92;;
44228;SDS011;29904;51.058;5.378;2023-01-25T08:11:24;27.00;;;18.55;;
44228;SDS011;29904;51.058;5.378;2023-01-25T08:13:51;28.85;;;19.63;;
44228;SDS011;29904;51.058;5.378;2023-01-25T08:16:17;27.63;;;18.97;;
44228;SDS011;29904;51.058;5.378;2023-01-25T08:19:03;28.15;;;19.13;;
44228;SDS011;29904;51.058;5.378;2023-01-25T08:21:30;30.38;;;20.98;;
44228;SDS011;29904;51.058;5.378;2023-01-25T08:23:58;28.75;;;19.98;;
44228;SDS011;29904;51.058;5.378;2023-01-25T08:26:25;28.38;;;19.65;;
44228;SDS011;29904;51.058;5.378;2023-01-25T08:28:52;30.20;;;20.63;;
44228;SDS011;29904;51.058;5.378;2023-01-25T08:31:21;29.53;;;19.03;;
44228;SDS011;29904;51.058;5.378;2023-01-25T08:33:49;27.77;;;19.05;;
44228;SDS011;29904;51.058;5.378;2023-01-25T08:36:16;28.27;;;18.90;;
44228;SDS011;29904;51.058;5.378;2023-01-25T08:38:42;32.45;;;20.40;;
44228;SDS011;29904;51.058;5.378;2023-01-25T08:41:20;40.63;;;23.20;;
44228;SDS011;29904;51.058;5.378;2023-01-25T08:43:47;37.60;;;23.95;;
44228;SDS011;29904;51.058;5.378;2023-01-25T08:46:15;33.70;;;21.63;;
44228;SDS011;29904;51.058;5.378;2023-01-25T08:48:41;33.65;;;21.83;;
44228;SDS011;29904;51.058;5.378;2023-01-25T08:51:08;30.98;;;20.70;;
44228;SDS011;29904;51.058;5.378;2023-01-25T08:53:38;29.83;;;19.13;;
44228;SDS011;29904;51.058;5.378;2023-01-25T08:56:04;30.23;;;19.83;;
44228;SDS011;29904;51.058;5.378;2023-01-25T08:58:31;34.15;;;21.45;;
44228;SDS011;29904;51.058;5.378;2023-01-25T09:01:02;34.45;;;23.05;;
44228;SDS011;29904;51.058;5.378;2023-01-25T09:03:29;33.45;;;22.55;;
44228;SDS011;29904;51.058;5.378;2023-01-25T09:05:56;35.45;;;22.48;;
44228;SDS011;29904;51.058;5.378;2023-01-25T09:08:22;33.10;;;22.20;;
44228;SDS011;29904;51.058;5.378;2023-01-25T09:10:47;35.30;;;22.97;;
44228;SDS011;29904;51.058;5.378;2023-01-25T09:13:13;35.37;;;23.00;;
44228;SDS011;29904;51.058;5.378;2023-01-25T09:15:39;37.83;;;24.02;;
44228;SDS011;29904;51.058;5.378;2023-01-25T09:18:04;33.72;;;22.08;;
44228;SDS011;29904;51.058;5.378;2023-01-25T09:20:30;34.80;;;21.88;;
44228;SDS011;29904;51.058;5.378;2023-01-25T09:22:56;38.47;;;23.80;;
44228;SDS011;29904;51.058;5.378;2023-01-25T09:25:22;40.30;;;24.75;;
44228;SDS011;29904;51.058;5.378;2023-01-25T09:27:48;44.20;;;26.60;;
44228;SDS011;29904;51.058;5.378;2023-01-25T09:30:16;37.55;;;23.60;;
44228;SDS011;29904;51.058;5.378;2023-01-25T09:32:42;36.67;;;22.52;;
44228;SDS011;29904;51.058;5.378;2023-01-25T09:35:08;31.65;;;20.48;;
44228;SDS011;29904;51.058;5.378;2023-01-25T09:37:34;32.58;;;20.33;;
44228;SDS011;29904;51.058;5.378;2023-01-25T09:40:00;30.98;;;20.63;;
44228;SDS011;29904;51.058;5.378;2023-01-25T09:45:22;29.63;;;20.00;;
44228;SDS011;29904;51.058;5.378;2023-01-25T09:48:08;33.03;;;21.63;;
44228;SDS011;29904;51.058;5.378;2023-01-25T09:55:58;31.35;;;20.85;;
44228;SDS011;29904;51.058;5.378;2023-01-25T09:58:34;32.70;;;20.67;;
44228;SDS011;29904;51.058;5.378;2023-01-25T10:01:06;31.63;;;21.50;;
44228;SDS011;29904;51.058;5.378;2023-01-25T10:06:46;32.13;;;20.85;;
44228;SDS011;29904;51.058;5.378;2023-01-25T10:12:17;35.03;;;23.73;;
44228;SDS011;29904;51.058;5.378;2023-01-25T10:14:45;31.92;;;20.90;;
44228;SDS011;29904;51.058;5.378;2023-01-25T10:17:34;27.58;;;19.02;;
44228;SDS011;29904;51.058;5.378;2023-01-25T10:25:35;29.35;;;19.60;;
44228;SDS011;29904;51.058;5.378;2023-01-25T10:28:08;30.60;;;20.25;;
44228;SDS011;29904;51.058;5.378;2023-01-25T10:30:59;26.60;;;18.20;;
44228;SDS011;29904;51.058;5.378;2023-01-25T10:33:28;29.35;;;19.20;;
44228;SDS011;29904;51.058;5.378;2023-01-25T10:35:57;31.48;;;20.33;;
44228;SDS011;29904;51.058;5.378;2023-01-25T10:38:37;27.70;;;17.77;;
44228;SDS011;29904;51.058;5.378;2023-01-25T10:41:24;33.67;;;21.17;;
44228;SDS011;29904;51.058;5.378;2023-01-25T10:43:54;31.90;;;20.90;;
44228;SDS011;29904;51.058;5.378;2023-01-25T10:46:46;27.67;;;18.90;;
44228;SDS011;29904;51.058;5.378;2023-01-25T10:50:01;30.50;;;20.10;;
44228;SDS011;29904;51.058;5.378;2023-01-25T10:55:15;28.05;;;19.05;;
44228;SDS011;29904;51.058;5.378;2023-01-25T10:57:48;31.52;;;21.02;;
44228;SDS011;29904;51.058;5.378;2023-01-25T11:00:24;31.73;;;20.35;;
44228;SDS011;29904;51.058;5.378;2023-01-25T11:02:51;29.15;;;19.95;;
44228;SDS011;29904;51.058;5.378;2023-01-25T11:07:44;28.30;;;19.02;;
44228;SDS011;29904;51.058;5.378;2023-01-25T11:18:11;31.23;;;20.60;;
44228;SDS011;29904;51.058;5.378;2023-01-25T11:20:42;37.65;;;26.05;;
44228;SDS011;29904;51.058;5.378;2023-01-25T11:23:23;36.17;;;22.75;;
44228;SDS011;29904;51.058;5.378;2023-01-25T11:25:51;34.88;;;22.70;;
44228;SDS011;29904;51.058;5.378;2023-01-25T11:30:44;33.92;;;21.63;;
44228;SDS011;29904;51.058;5.378;2023-01-25T11:33:14;32.17;;;20.75;;
44228;SDS011;29904;51.058;5.378;2023-01-25T11:38:25;32.95;;;21.92;;
44228;SDS011;29904;51.058;5.378;2023-01-25T11:40:54;32.30;;;21.48;;
44228;SDS011;29904;51.058;5.378;2023-01-25T11:43:49;33.42;;;21.95;;
44228;SDS011;29904;51.058;5.378;2023-01-25T11:46:20;31.63;;;20.30;;
44228;SDS011;29904;51.058;5.378;2023-01-25T11:49:37;29.55;;;19.55;;
44228;SDS011;29904;51.058;5.378;2023-01-25T11:55:18;34.65;;;22.58;;
44228;SDS011;29904;51.058;5.378;2023-01-25T12:00:34;31.35;;;20.23;;
44228;SDS011;29904;51.058;5.378;2023-01-25T12:11:30;31.70;;;21.08;;
44228;SDS011;29904;51.058;5.378;2023-01-25T12:29:48;32.30;;;21.77;;
44228;SDS011;29904;51.058;5.378;2023-01-25T12:32:31;32.35;;;21.73;;
44228;SDS011;29904;51.058;5.378;2023-01-25T12:38:03;34.67;;;23.08;;
44228;SDS011;29904;51.058;5.378;2023-01-25T12:43:27;35.22;;;23.33;;
44228;SDS011;29904;51.058;5.378;2023-01-25T12:45:57;36.65;;;23.85;;
44228;SDS011;29904;51.058;5.378;2023-01-25T12:48:35;36.80;;;24.50;;
44228;SDS011;29904;51.058;5.378;2023-01-25T12:51:05;35.83;;;22.80;;
44228;SDS011;29904;51.058;5.378;2023-01-25T12:53:37;36.25;;;22.73;;
44228;SDS011;29904;51.058;5.378;2023-01-25T12:56:07;33.83;;;22.02;;
44228;SDS011;29904;51.058;5.378;2023-01-25T12:58:40;34.17;;;22.73;;
44228;SDS011;29904;51.058;5.378;2023-01-25T13:01:55;33.40;;;22.60;;
44228;SDS011;29904;51.058;5.378;2023-01-25T13:07:49;34.10;;;21.35;;
44228;SDS011;29904;51.058;5.378;2023-01-25T13:10:23;35.17;;;22.80;;
44228;SDS011;29904;51.058;5.378;2023-01-25T13:13:01;34.17;;;22.55;;
44228;SDS011;29904;51.058;5.378;2023-01-25T13:15:41;34.70;;;22.50;;
44228;SDS011;29904;51.058;5.378;2023-01-25T13:20:52;34.65;;;22.42;;
44228;SDS011;29904;51.058;5.378;2023-01-25T13:23:28;35.35;;;22.23;;
44228;SDS011;29904;51.058;5.378;2023-01-25T13:28:45;40.23;;;25.27;;
44228;SDS011;29904;51.058;5.378;2023-01-25T13:34:12;37.88;;;25.10;;
44228;SDS011;29904;51.058;5.378;2023-01-25T13:39:50;37.80;;;24.67;;
44228;SDS011;29904;51.058;5.378;2023-01-25T13:42:19;39.13;;;25.05;;
44228;SDS011;29904;51.058;5.378;2023-01-25T13:44:48;40.27;;;24.53;;
44228;SDS011;29904;51.058;5.378;2023-01-25T13:47:20;37.80;;;24.03;;
44228;SDS011;29904;51.058;5.378;2023-01-25T13:52:25;37.58;;;24.13;;
44228;SDS011;29904;51.058;5.378;2023-01-25T13:54:56;38.67;;;24.03;;
44228;SDS011;29904;51.058;5.378;2023-01-25T13:57:26;37.47;;;23.67;;
44228;SDS011;29904;51.058;5.378;2023-01-25T13:59:58;40.42;;;23.77;;
44228;SDS011;29904;51.058;5.378;2023-01-25T14:02:24;40.20;;;23.90;;
44228;SDS011;29904;51.058;5.378;2023-01-25T14:04:51;39.03;;;23.85;;
44228;SDS011;29904;51.058;5.378;2023-01-25T14:07:18;40.97;;;25.63;;
44228;SDS011;29904;51.058;5.378;2023-01-25T14:09:49;40.00;;;25.15;;
44228;SDS011;29904;51.058;5.378;2023-01-25T14:12:32;43.60;;;26.02;;
44228;SDS011;29904;51.058;5.378;2023-01-25T14:15:36;39.88;;;24.67;;
44228;SDS011;29904;51.058;5.378;2023-01-25T14:20:45;41.85;;;26.23;;
44228;SDS011;29904;51.058;5.378;2023-01-25T14:23:31;42.60;;;26.30;;
44228;SDS011;29904;51.058;5.378;2023-01-25T14:25:58;42.40;;;26.27;;
44228;SDS011;29904;51.058;5.378;2023-01-25T14:28:25;41.05;;;25.58;;
44228;SDS011;29904;51.058;5.378;2023-01-25T14:30:54;39.83;;;24.23;;
44228;SDS011;29904;51.058;5.378;2023-01-25T14:33:22;42.67;;;25.75;;
44228;SDS011;29904;51.058;5.378;2023-01-25T14:36:06;47.72;;;28.38;;
44228;SDS011;29904;51.058;5.378;2023-01-25T14:38:37;45.30;;;27.05;;
44228;SDS011;29904;51.058;5.378;2023-01-25T14:43:44;48.90;;;28.27;;
44228;SDS011;29904;51.058;5.378;2023-01-25T14:46:22;42.65;;;25.58;;
44228;SDS011;29904;51.058;5.378;2023-01-25T14:48:49;41.92;;;25.48;;
44228;SDS011;29904;51.058;5.378;2023-01-25T14:51:28;43.05;;;25.63;;
44228;SDS011;29904;51.058;5.378;2023-01-25T14:54:00;43.72;;;25.95;;
44228;SDS011;29904;51.058;5.378;2023-01-25T14:56:42;53.20;;;33.17;;
44228;SDS011;29904;51.058;5.378;2023-01-25T14:59:43;43.03;;;25.17;;
44228;SDS011;29904;51.058;5.378;2023-01-25T15:05:05;46.72;;;29.10;;
44228;SDS011;29904;51.058;5.378;2023-01-25T15:07:32;47.40;;;28.30;;
44228;SDS011;29904;51.058;5.378;2023-01-25T15:15:27;47.13;;;27.83;;
44228;SDS011;29904;51.058;5.378;2023-01-25T15:17:55;44.95;;;27.45;;
44228;SDS011;29904;51.058;5.378;2023-01-25T15:23:22;47.13;;;27.83;;
44228;SDS011;29904;51.058;5.378;2023-01-25T15:25:50;46.72;;;27.75;;
44228;SDS011;29904;51.058;5.378;2023-01-25T15:28:19;44.95;;;26.58;;
44228;SDS011;29904;51.058;5.378;2023-01-25T15:30:46;47.20;;;27.52;;
44228;SDS011;29904;51.058;5.378;2023-01-25T15:33:15;46.72;;;28.02;;
44228;SDS011;29904;51.058;5.378;2023-01-25T15:35:52;48.00;;;28.02;;
44228;SDS011;29904;51.058;5.378;2023-01-25T15:38:18;46.78;;;27.60;;
44228;SDS011;29904;51.058;5.378;2023-01-25T15:40:45;47.05;;;27.52;;
44228;SDS011;29904;51.058;5.378;2023-01-25T15:43:15;51.25;;;30.10;;
44228;SDS011;29904;51.058;5.378;2023-01-25T15:45:42;50.30;;;29.70;;
44228;SDS011;29904;51.058;5.378;2023-01-25T15:48:21;49.33;;;29.00;;
44228;SDS011;29904;51.058;5.378;2023-01-25T15:50:53;52.67;;;29.80;;
44228;SDS011;29904;51.058;5.378;2023-01-25T15:53:21;48.42;;;27.83;;
44228;SDS011;29904;51.058;5.378;2023-01-25T15:55:51;48.35;;;28.27;;
44228;SDS011;29904;51.058;5.378;2023-01-25T15:58:33;50.97;;;28.98;;
44228;SDS011;29904;51.058;5.378;2023-01-25T16:01:01;51.10;;;28.60;;
44228;SDS011;29904;51.058;5.378;2023-01-25T16:03:27;49.80;;;29.08;;
44228;SDS011;29904;51.058;5.378;2023-01-25T16:05:58;54.72;;;31.00;;
44228;SDS011;29904;51.058;5.378;2023-01-25T16:08:25;50.65;;;29.15;;
44228;SDS011;29904;51.058;5.378;2023-01-25T16:10:51;50.50;;;29.55;;
44228;SDS011;29904;51.058;5.378;2023-01-25T16:13:17;50.97;;;29.47;;
44228;SDS011;29904;51.058;5.378;2023-01-25T16:15:44;49.38;;;28.92;;
44228;SDS011;29904;51.058;5.378;2023-01-25T16:18:13;50.47;;;29.75;;
44228;SDS011;29904;51.058;5.378;2023-01-25T16:20:39;50.95;;;29.80;;
44228;SDS011;29904;51.058;5.378;2023-01-25T16:23:05;56.88;;;32.85;;
44228;SDS011;29904;51.058;5.378;2023-01-25T16:25:35;61.75;;;34.25;;
44228;SDS011;29904;51.058;5.378;2023-01-25T16:28:05;53.60;;;30.58;;
44228;SDS011;29904;51.058;5.378;2023-01-25T16:30:33;47.72;;;27.60;;
44228;SDS011;29904;51.058;5.378;2023-01-25T16:32:59;50.75;;;28.23;;